Time;durP1;ratioP1;P1;durP2;ratioP2;P2;SDS_P1;SDS_P2;PMS_P1;PMS_P2;Temp;Humidity;BMP_temperature;BMP_pressure;BME280_temperature;BME280_humidity;BME280_pressure;Samples;Min_cycle;Max_cycle;Signal;HPM_P1;HPM_P2
2023/03/02 00:01:48;;;;;;;4.80;0.82;;;;;;;;;;5111635;27;20445;-75
2023/03/02 00:04:17;;;;;;;3.67;0.73;;;;;;;;;;5103967;27;20031;-75
2023/03/02 00:06:43;;;;;;;8.35;0.80;;;;;;;;;;5087992;28;20024;-75
2023/03/02 00:09:09;;;;;;;4.00;0.65;;;;;;;;;;5118214;27;20479;-75
2023/03/02 00:11:38;;;;;;;4.18;0.98;;;;;;;;;;5106056;27;20037;-75
2023/03/02 00:14:04;;;;;;;4.97;0.90;;;;;;;;;;5106468;27;20023;-74
2023/03/02 00:16:30;;;;;;;2.80;0.65;;;;;;;;;;5107768;27;20031;-74
2023/03/02 00:18:56;;;;;;;3.92;0.85;;;;;;;;;;5108074;27;20534;-75
2023/03/02 00:21:23;;;;;;;10.27;1.17;;;;;;;;;;5106772;27;20031;-75
2023/03/02 00:23:50;;;;;;;6.75;1.45;;;;;;;;;;5110667;27;20057;-75
2023/03/02 00:26:17;;;;;;;5.40;0.88;;;;;;;;;;5107416;27;20030;-75
2023/03/02 00:28:43;;;;;;;3.95;0.70;;;;;;;;;;5109455;27;20023;-75
2023/03/02 00:31:09;;;;;;;7.75;1.10;;;;;;;;;;5108262;27;20169;-75
2023/03/02 00:33:35;;;;;;;3.70;1.23;;;;;;;;;;5109956;27;20559;-75
2023/03/02 00:36:02;;;;;;;4.07;1.05;;;;;;;;;;5116755;27;20046;-75
2023/03/02 00:38:28;;;;;;;6.82;1.52;;;;;;;;;;5114004;27;20122;-75
2023/03/02 00:40:55;;;;;;;2.95;0.90;;;;;;;;;;5104307;27;20089;-75
2023/03/02 00:43:26;;;;;;;6.82;0.77;;;;;;;;;;5109402;27;20064;-75
2023/03/02 00:45:52;;;;;;;5.07;0.68;;;;;;;;;;5105619;27;20383;-75
2023/03/02 00:48:18;;;;;;;2.50;0.77;;;;;;;;;;5107084;27;20054;-75
2023/03/02 00:50:45;;;;;;;7.03;0.90;;;;;;;;;;5106675;27;20130;-75
2023/03/02 00:53:11;;;;;;;6.35;1.00;;;;;;;;;;5106984;27;20031;-75
2023/03/02 00:55:37;;;;;;;8.00;1.25;;;;;;;;;;5107901;27;20049;-75
2023/03/02 00:58:04;;;;;;;3.75;0.88;;;;;;;;;;5104411;27;20680;-75
2023/03/02 01:00:31;;;;;;;3.20;0.80;;;;;;;;;;5110777;27;20118;-75
2023/03/02 01:02:58;;;;;;;3.20;1.00;;;;;;;;;;5101897;27;20612;-75
2023/03/02 01:05:24;;;;;;;6.82;1.20;;;;;;;;;;5111869;27;20036;-75
2023/03/02 01:07:50;;;;;;;2.38;1.00;;;;;;;;;;5104166;28;20015;-75
2023/03/02 01:10:16;;;;;;;4.10;0.90;;;;;;;;;;5106212;27;20062;-75
2023/03/02 01:12:42;;;;;;;5.15;1.08;;;;;;;;;;5103953;27;20020;-75
2023/03/02 01:15:09;;;;;;;5.80;0.82;;;;;;;;;;5107883;27;20883;-75
2023/03/02 01:17:36;;;;;;;4.70;0.82;;;;;;;;;;5102786;27;20243;-75
2023/03/02 01:20:03;;;;;;;4.53;0.80;;;;;;;;;;5102657;28;20054;-75
2023/03/02 01:22:29;;;;;;;4.32;0.82;;;;;;;;;;5109518;28;20019;-75
2023/03/02 01:24:55;;;;;;;2.90;0.90;;;;;;;;;;5107995;28;20030;-75
2023/03/02 01:27:21;;;;;;;4.32;1.05;;;;;;;;;;5107001;28;20091;-75
2023/03/02 01:29:49;;;;;;;3.90;0.85;;;;;;;;;;5110361;28;20016;-75
2023/03/02 01:32:15;;;;;;;2.58;0.57;;;;;;;;;;5113164;28;20035;-75
2023/03/02 01:34:41;;;;;;;1.63;0.98;;;;;;;;;;5108760;28;20533;-75
2023/03/02 01:37:08;;;;;;;2.80;0.75;;;;;;;;;;5103708;28;20072;-75
2023/03/02 01:39:34;;;;;;;4.20;0.68;;;;;;;;;;5109278;28;20498;-75
2023/03/02 01:42:00;;;;;;;3.17;0.75;;;;;;;;;;5107209;28;20103;-75
2023/03/02 01:44:46;;;;;;;5.45;0.90;;;;;;;;;;5108383;28;20102;-75
2023/03/02 01:47:15;;;;;;;3.40;0.65;;;;;;;;;;5105667;27;20031;-75
2023/03/02 01:49:44;;;;;;;2.47;0.70;;;;;;;;;;5110964;27;20027;-75
2023/03/02 01:52:11;;;;;;;2.33;0.68;;;;;;;;;;5112596;27;20146;-74
2023/03/02 01:54:38;;;;;;;6.78;1.05;;;;;;;;;;5113315;27;20027;-75
2023/03/02 01:57:05;;;;;;;4.97;0.63;;;;;;;;;;5116989;27;20039;-74
2023/03/02 01:59:32;;;;;;;4.75;0.88;;;;;;;;;;5123647;27;20722;-75
2023/03/02 02:02:01;;;;;;;4.45;0.77;;;;;;;;;;5112127;27;20247;-75
2023/03/02 02:04:28;;;;;;;3.53;0.90;;;;;;;;;;5106020;27;20219;-74
2023/03/02 02:06:56;;;;;;;4.95;0.77;;;;;;;;;;5108078;27;20115;-75
2023/03/02 02:09:23;;;;;;;3.38;1.02;;;;;;;;;;5109170;27;20118;-75
2023/03/02 02:11:50;;;;;;;2.03;0.73;;;;;;;;;;5107447;27;20714;-75
2023/03/02 02:14:16;;;;;;;3.65;0.75;;;;;;;;;;5109812;27;20118;-75
2023/03/02 02:16:42;;;;;;;1.38;0.60;;;;;;;;;;5111775;27;20020;-75
2023/03/02 02:19:31;;;;;;;2.45;0.60;;;;;;;;;;5110016;27;20061;-75
2023/03/02 02:21:57;;;;;;;2.30;0.55;;;;;;;;;;5112649;27;20633;-75
2023/03/02 02:24:35;;;;;;;3.80;0.63;;;;;;;;;;5112699;27;20020;-75
2023/03/02 02:27:02;;;;;;;5.72;1.65;;;;;;;;;;5112793;27;20110;-74
2023/03/02 02:29:33;;;;;;;2.92;0.85;;;;;;;;;;5109760;27;20032;-75
2023/03/02 02:32:02;;;;;;;3.97;0.60;;;;;;;;;;5104643;27;20100;-75
2023/03/02 02:34:51;;;;;;;4.63;0.77;;;;;;;;;;5110854;27;20020;-75
2023/03/02 02:37:38;;;;;;;1.70;0.55;;;;;;;;;;5101514;27;20039;-75
2023/03/02 02:40:06;;;;;;;2.83;0.45;;;;;;;;;;5110532;27;20114;-75
2023/03/02 02:42:34;;;;;;;2.97;0.52;;;;;;;;;;5111832;27;20561;-75
2023/03/02 02:45:02;;;;;;;2.38;0.50;;;;;;;;;;5112185;27;20016;-75
2023/03/02 02:47:28;;;;;;;2.42;0.40;;;;;;;;;;5111653;27;20490;-75
2023/03/02 02:49:55;;;;;;;1.67;0.60;;;;;;;;;;5110210;27;20023;-75
2023/03/02 02:52:22;;;;;;;3.65;0.77;;;;;;;;;;5118556;27;20023;-75
2023/03/02 02:54:50;;;;;;;4.78;0.65;;;;;;;;;;5115389;27;20664;-75
2023/03/02 02:57:17;;;;;;;4.07;0.70;;;;;;;;;;5115062;27;20048;-75
2023/03/02 02:59:47;;;;;;;2.53;0.43;;;;;;;;;;5106187;27;20088;-75
2023/03/02 03:02:18;;;;;;;3.92;0.65;;;;;;;;;;5106690;27;20110;-75
2023/03/02 03:04:44;;;;;;;4.95;0.60;;;;;;;;;;5105017;27;20045;-75
2023/03/02 03:07:13;;;;;;;2.50;0.30;;;;;;;;;;5108035;27;20110;-75
2023/03/02 03:09:39;;;;;;;2.47;0.55;;;;;;;;;;5106962;27;20020;-75
2023/03/02 03:12:13;;;;;;;1.95;0.63;;;;;;;;;;5105088;27;20023;-75
2023/03/02 03:14:40;;;;;;;7.40;1.50;;;;;;;;;;5108274;27;20683;-75
2023/03/02 03:17:10;;;;;;;2.85;0.55;;;;;;;;;;5099762;27;20074;-75
2023/03/02 03:19:37;;;;;;;1.70;0.52;;;;;;;;;;5101236;27;20049;-75
2023/03/02 03:22:04;;;;;;;6.10;0.95;;;;;;;;;;5104937;27;20045;-75
2023/03/02 03:24:31;;;;;;;2.45;0.43;;;;;;;;;;5105531;27;20034;-76
2023/03/02 03:26:58;;;;;;;3.10;0.63;;;;;;;;;;5107092;27;20131;-75
2023/03/02 03:29:25;;;;;;;1.40;0.60;;;;;;;;;;5104125;27;20035;-75
2023/03/02 03:31:52;;;;;;;3.33;0.63;;;;;;;;;;5108331;27;20109;-75
2023/03/02 03:34:18;;;;;;;4.85;1.02;;;;;;;;;;5102300;27;20039;-76
2023/03/02 03:36:45;;;;;;;6.53;0.95;;;;;;;;;;5113961;27;20045;-75
2023/03/02 03:39:11;;;;;;;3.15;0.80;;;;;;;;;;5103968;27;20035;-75
2023/03/02 03:41:38;;;;;;;10.30;1.13;;;;;;;;;;5108934;27;20114;-75
2023/03/02 03:44:04;;;;;;;4.30;0.88;;;;;;;;;;5115970;27;20027;-76
2023/03/02 03:46:31;;;;;;;6.45;0.95;;;;;;;;;;5105539;27;20027;-75
2023/03/02 03:48:57;;;;;;;4.88;0.80;;;;;;;;;;5107519;27;20031;-75
2023/03/02 03:51:23;;;;;;;2.50;0.90;;;;;;;;;;5103812;27;20110;-75
2023/03/02 03:53:58;;;;;;;6.05;1.42;;;;;;;;;;5100447;27;20019;-75
2023/03/02 03:56:26;;;;;;;5.50;0.95;;;;;;;;;;5102757;27;20042;-75
2023/03/02 03:59:04;;;;;;;5.82;1.00;;;;;;;;;;5102724;27;20040;-75
2023/03/02 04:01:33;;;;;;;6.95;1.10;;;;;;;;;;5104445;27;20618;-75
2023/03/02 04:04:00;;;;;;;8.63;1.40;;;;;;;;;;5104674;27;20547;-75
2023/03/02 04:06:26;;;;;;;3.92;1.02;;;;;;;;;;5102207;27;20036;-75
2023/03/02 04:08:52;;;;;;;7.68;1.83;;;;;;;;;;5108439;27;20570;-75
2023/03/02 04:11:19;;;;;;;4.25;1.10;;;;;;;;;;5100125;27;20814;-75
2023/03/02 04:13:45;;;;;;;4.55;1.13;;;;;;;;;;5107214;27;20561;-75
2023/03/02 04:16:11;;;;;;;3.75;1.13;;;;;;;;;;5104199;27;20036;-75
2023/03/02 04:18:37;;;;;;;4.68;1.50;;;;;;;;;;5101725;27;20051;-75
2023/03/02 04:21:03;;;;;;;3.78;0.90;;;;;;;;;;5102314;27;20501;-75
2023/03/02 04:23:30;;;;;;;5.90;1.20;;;;;;;;;;5101600;27;20096;-75
2023/03/02 04:25:56;;;;;;;7.18;1.27;;;;;;;;;;5104206;27;20038;-77
2023/03/02 04:28:22;;;;;;;4.72;1.33;;;;;;;;;;5109597;27;20102;-76
2023/03/02 04:30:50;;;;;;;8.90;1.63;;;;;;;;;;5105354;27;20055;-75
2023/03/02 04:33:16;;;;;;;5.75;1.10;;;;;;;;;;5101987;27;20024;-75
2023/03/02 04:35:42;;;;;;;7.15;1.40;;;;;;;;;;5107287;27;20262;-75
2023/03/02 04:38:08;;;;;;;5.43;1.45;;;;;;;;;;5106561;27;20475;-75
2023/03/02 04:40:34;;;;;;;5.22;1.52;;;;;;;;;;5108376;27;20050;-75
2023/03/02 04:43:01;;;;;;;3.60;0.90;;;;;;;;;;5105996;27;20094;-76
2023/03/02 04:45:27;;;;;;;4.15;1.15;;;;;;;;;;5106400;27;20042;-76
2023/03/02 04:47:53;;;;;;;8.10;1.60;;;;;;;;;;5105155;27;20068;-75
2023/03/02 04:50:19;;;;;;;6.25;2.22;;;;;;;;;;5107804;27;20114;-75
2023/03/02 04:52:46;;;;;;;5.15;1.40;;;;;;;;;;5105484;27;20080;-75
2023/03/02 04:55:19;;;;;;;5.47;1.27;;;;;;;;;;5108505;27;20023;-76
2023/03/02 04:57:45;;;;;;;4.82;1.05;;;;;;;;;;5107810;27;20423;-75
2023/03/02 05:00:11;;;;;;;5.90;1.20;;;;;;;;;;5105609;27;20146;-75
2023/03/02 05:02:38;;;;;;;3.53;1.00;;;;;;;;;;5108527;27;20054;-75
2023/03/02 05:05:04;;;;;;;6.88;1.35;;;;;;;;;;5108857;27;20019;-75
2023/03/02 05:07:30;;;;;;;3.88;1.38;;;;;;;;;;5108249;27;20023;-76
2023/03/02 05:09:56;;;;;;;7.03;1.25;;;;;;;;;;5106957;27;20525;-75
2023/03/02 05:12:23;;;;;;;8.13;1.27;;;;;;;;;;5105054;27;20035;-75
2023/03/02 05:14:49;;;;;;;9.35;1.13;;;;;;;;;;5104833;27;20027;-75
2023/03/02 05:17:15;;;;;;;3.35;1.33;;;;;;;;;;5111029;27;20023;-75
2023/03/02 05:19:41;;;;;;;5.75;1.50;;;;;;;;;;5104826;27;20147;-75
2023/03/02 05:22:08;;;;;;;9.43;2.88;;;;;;;;;;5105904;27;20042;-75
2023/03/02 05:24:34;;;;;;;5.35;1.60;;;;;;;;;;5105184;28;20073;-75
2023/03/02 05:27:00;;;;;;;5.82;1.25;;;;;;;;;;5104733;28;20042;-75
2023/03/02 05:29:26;;;;;;;4.03;1.30;;;;;;;;;;5106204;28;20104;-75
2023/03/02 05:31:53;;;;;;;8.20;1.35;;;;;;;;;;5108875;27;20563;-75
2023/03/02 05:34:19;;;;;;;5.63;1.40;;;;;;;;;;5100229;27;20621;-75
2023/03/02 05:36:46;;;;;;;5.40;1.30;;;;;;;;;;5091387;28;20106;-75
2023/03/02 05:39:12;;;;;;;3.63;1.17;;;;;;;;;;5100436;28;20256;-75
2023/03/02 05:41:39;;;;;;;4.82;1.20;;;;;;;;;;5105819;28;20024;-75
2023/03/02 05:44:08;;;;;;;5.07;1.35;;;;;;;;;;5100525;27;20102;-75
2023/03/02 05:46:34;;;;;;;7.28;1.30;;;;;;;;;;5098144;28;20072;-75
2023/03/02 05:49:01;;;;;;;6.45;1.00;;;;;;;;;;5110172;27;20039;-75
2023/03/02 05:51:27;;;;;;;5.30;1.77;;;;;;;;;;5104611;28;20560;-75
2023/03/02 05:53:53;;;;;;;7.43;1.60;;;;;;;;;;5108562;27;20027;-75
2023/03/02 05:56:21;;;;;;;7.07;1.50;;;;;;;;;;5106203;27;20026;-75
2023/03/02 05:58:47;;;;;;;7.85;1.88;;;;;;;;;;5107649;28;20051;-75
2023/03/02 06:01:13;;;;;;;7.25;1.77;;;;;;;;;;5098797;28;20107;-75
2023/03/02 06:03:39;;;;;;;3.67;1.08;;;;;;;;;;5105797;28;20020;-75
2023/03/02 06:06:06;;;;;;;6.53;1.25;;;;;;;;;;5103413;28;20185;-75
2023/03/02 06:08:32;;;;;;;2.78;1.40;;;;;;;;;;5103553;28;20024;-75
2023/03/02 06:10:58;;;;;;;7.20;1.63;;;;;;;;;;5106614;27;20483;-75
2023/03/02 06:13:25;;;;;;;8.95;1.92;;;;;;;;;;5102797;28;20019;-75
2023/03/02 06:15:51;;;;;;;4.57;1.08;;;;;;;;;;5111995;28;20534;-75
2023/03/02 06:18:17;;;;;;;5.18;1.38;;;;;;;;;;5106899;27;20030;-75
2023/03/02 06:20:43;;;;;;;3.45;1.05;;;;;;;;;;5105664;28;20040;-75
2023/03/02 06:23:10;;;;;;;4.00;1.10;;;;;;;;;;5105075;28;20061;-75
2023/03/02 06:25:40;;;;;;;7.25;1.27;;;;;;;;;;5108441;28;20027;-75
2023/03/02 06:28:06;;;;;;;5.13;1.30;;;;;;;;;;5106895;28;20051;-75
2023/03/02 06:30:32;;;;;;;7.07;1.60;;;;;;;;;;5105065;27;20027;-75
2023/03/02 06:32:59;;;;;;;14.05;1.80;;;;;;;;;;5105003;28;20102;-75
2023/03/02 06:35:25;;;;;;;11.05;2.10;;;;;;;;;;5110169;27;20027;-75
2023/03/02 06:37:51;;;;;;;9.52;1.73;;;;;;;;;;5106852;27;20487;-76
2023/03/02 06:40:17;;;;;;;4.20;1.13;;;;;;;;;;5110692;27;20436;-76
2023/03/02 06:42:43;;;;;;;2.95;1.20;;;;;;;;;;5108336;27;20024;-76
2023/03/02 06:45:10;;;;;;;6.13;1.52;;;;;;;;;;5109075;27;20177;-76
2023/03/02 06:47:36;;;;;;;6.18;1.40;;;;;;;;;;5108013;27;20655;-75
2023/03/02 06:50:03;;;;;;;9.27;1.85;;;;;;;;;;5108639;27;20383;-77
2023/03/02 06:52:29;;;;;;;5.78;1.77;;;;;;;;;;5101982;27;20031;-77
2023/03/02 06:54:56;;;;;;;5.10;1.42;;;;;;;;;;5100900;28;20062;-75
2023/03/02 06:57:22;;;;;;;5.20;1.50;;;;;;;;;;5103415;27;20047;-75
2023/03/02 06:59:48;;;;;;;8.73;1.83;;;;;;;;;;5102574;27;20126;-76
2023/03/02 07:02:35;;;;;;;8.60;1.83;;;;;;;;;;5092508;27;20524;-80
2023/03/02 07:05:12;;;;;;;7.45;1.65;;;;;;;;;;5100471;27;20023;-80
2023/03/02 07:10:32;;;;;;;6.68;1.40;;;;;;;;;;5110299;27;20038;-76
2023/03/02 07:13:00;;;;;;;6.50;1.33;;;;;;;;;;5109805;27;20023;-80
2023/03/02 07:15:27;;;;;;;6.93;1.58;;;;;;;;;;5119467;27;20035;-78
2023/03/02 07:17:53;;;;;;;11.65;1.73;;;;;;;;;;5109889;27;20073;-77
2023/03/02 07:20:22;;;;;;;5.95;1.42;;;;;;;;;;5112275;27;20038;-77
2023/03/02 07:23:00;;;;;;;162.35;16.90;;;;;;;;;;5107014;27;20045;-81
2023/03/02 07:25:26;;;;;;;38.20;5.25;;;;;;;;;;5101237;27;20027;-84
2023/03/02 07:27:52;;;;;;;30.92;3.40;;;;;;;;;;5104407;27;20054;-83
2023/03/02 07:30:20;;;;;;;11.50;1.88;;;;;;;;;;5105955;27;20376;-83
2023/03/02 07:33:03;;;;;;;;;;;;;;;;;;;;;
2023/03/02 07:35:30;;;;;;;4.57;1.48;;;;;;;;;;5105920;27;20026;-78
2023/03/02 07:38:01;;;;;;;4.53;1.35;;;;;;;;;;5106490;27;20023;-83
2023/03/02 07:40:28;;;;;;;10.60;2.08;;;;;;;;;;5111592;27;20098;-90
2023/03/02 07:42:54;;;;;;;7.82;1.65;;;;;;;;;;5109543;27;20019;-91
2023/03/02 07:45:23;;;;;;;8.27;1.95;;;;;;;;;;5107180;27;20015;-78
2023/03/02 07:47:50;;;;;;;6.97;1.65;;;;;;;;;;5104151;27;20012;-78
2023/03/02 07:50:16;;;;;;;10.60;1.85;;;;;;;;;;5105151;27;20504;-78
2023/03/02 07:52:42;;;;;;;4.60;1.67;;;;;;;;;;5103657;27;20015;-78
2023/03/02 07:55:09;;;;;;;4.18;1.42;;;;;;;;;;5103756;27;20024;-78
2023/03/02 07:57:35;;;;;;;9.98;1.67;;;;;;;;;;5109569;27;20050;-77
2023/03/02 08:00:01;;;;;;;4.70;1.52;;;;;;;;;;5106213;27;20066;-78
2023/03/02 08:02:28;;;;;;;7.72;1.75;;;;;;;;;;5104970;27;20028;-78
2023/03/02 08:04:54;;;;;;;8.18;2.13;;;;;;;;;;5101532;27;20028;-79
2023/03/02 08:07:20;;;;;;;10.60;1.67;;;;;;;;;;5106258;27;20032;-78
2023/03/02 08:09:46;;;;;;;6.15;1.75;;;;;;;;;;5099726;27;20455;-79
2023/03/02 08:12:12;;;;;;;8.30;1.65;;;;;;;;;;5106562;27;20632;-78
2023/03/02 08:14:46;;;;;;;2.90;1.17;;;;;;;;;;5102593;27;20505;-79
2023/03/02 08:17:12;;;;;;;8.38;1.88;;;;;;;;;;5105893;27;20028;-79
2023/03/02 08:19:39;;;;;;;9.75;1.67;;;;;;;;;;5110718;27;20448;-79
2023/03/02 08:22:07;;;;;;;5.20;1.95;;;;;;;;;;5096501;27;20407;-79
2023/03/02 08:24:34;;;;;;;6.53;1.50;;;;;;;;;;5100854;27;20034;-78
2023/03/02 08:27:03;;;;;;;7.05;1.58;;;;;;;;;;5106461;27;20024;-79
2023/03/02 08:29:30;;;;;;;5.85;2.17;;;;;;;;;;5099983;27;20035;-78
2023/03/02 08:31:57;;;;;;;3.88;1.92;;;;;;;;;;5105398;27;20250;-77
2023/03/02 08:34:25;;;;;;;5.22;1.60;;;;;;;;;;5102245;28;20074;-78
2023/03/02 08:36:54;;;;;;;7.22;1.88;;;;;;;;;;5095231;27;20020;-79
2023/03/02 08:39:23;;;;;;;7.97;2.25;;;;;;;;;;5100892;27;20479;-79
2023/03/02 08:41:50;;;;;;;15.25;3.33;;;;;;;;;;5112849;27;20031;-78
2023/03/02 08:44:16;;;;;;;6.35;1.90;;;;;;;;;;5106255;27;20023;-79
2023/03/02 08:46:43;;;;;;;6.45;1.90;;;;;;;;;;5107314;27;20675;-78
2023/03/02 08:52:46;;;;;;;;;;;;;;;;;;;;;
2023/03/02 08:55:12;;;;;;;5.80;1.65;;;;;;;;;;5107797;27;20027;-78
2023/03/02 08:57:40;;;;;;;8.15;1.83;;;;;;;;;;5103049;27;20400;-78
2023/03/02 09:00:18;;;;;;;;;;;;;;;;;;;;;
2023/03/02 09:02:54;;;;;;;5.20;2.00;;;;;;;;;;5104116;27;20061;-78
2023/03/02 09:05:20;;;;;;;4.90;2.17;;;;;;;;;;5102087;27;20023;-76
2023/03/02 09:07:46;;;;;;;5.55;1.90;;;;;;;;;;5106657;27;20402;-77
2023/03/02 09:10:15;;;;;;;4.63;1.70;;;;;;;;;;5099496;27;20205;-78
2023/03/02 09:12:41;;;;;;;10.40;3.28;;;;;;;;;;5103428;27;20026;-77
2023/03/02 09:15:07;;;;;;;13.35;2.42;;;;;;;;;;5103062;27;20020;-76
2023/03/02 09:17:36;;;;;;;4.50;1.85;;;;;;;;;;5102312;27;20020;-77
2023/03/02 09:20:08;;;;;;;7.03;2.10;;;;;;;;;;5110421;27;20084;-78
2023/03/02 09:22:49;;;;;;;;;;;;;;;;;;;;;
2023/03/02 09:25:18;;;;;;;9.90;2.05;;;;;;;;;;5110766;28;20039;-77
2023/03/02 09:27:48;;;;;;;12.43;3.08;;;;;;;;;;5102682;28;20573;-80
2023/03/02 09:33:18;;;;;;;9.75;2.03;;;;;;;;;;5110357;28;20426;-77
2023/03/02 09:35:46;;;;;;;7.50;2.20;;;;;;;;;;5107467;28;20030;-81
2023/03/02 09:38:15;;;;;;;7.40;2.25;;;;;;;;;;5108330;27;20015;-82
2023/03/02 09:41:00;;;;;;;11.93;2.50;;;;;;;;;;5102952;28;20035;-82
2023/03/02 09:43:44;;;;;;;4.78;1.63;;;;;;;;;;5105514;28;20023;-82
2023/03/02 09:46:16;;;;;;;6.82;2.30;;;;;;;;;;5110463;28;20112;-82
2023/03/02 09:48:59;;;;;;;9.02;2.22;;;;;;;;;;5108188;27;20038;-81
2023/03/02 09:51:26;;;;;;;9.23;2.10;;;;;;;;;;5108682;27;20020;-82
2023/03/02 09:54:04;;;;;;;5.97;1.80;;;;;;;;;;5108420;27;20028;-81
2023/03/02 09:56:50;;;;;;;7.38;2.30;;;;;;;;;;5105295;27;20084;-82
2023/03/02 09:59:43;;;;;;;3.67;1.63;;;;;;;;;;5107580;27;20035;-83
2023/03/02 10:02:28;;;;;;;10.07;1.83;;;;;;;;;;5107962;27;20114;-81
2023/03/02 10:05:01;;;;;;;8.45;1.95;;;;;;;;;;5104621;28;20020;-83
2023/03/02 10:07:40;;;;;;;8.00;2.35;;;;;;;;;;5108051;27;20122;-81
2023/03/02 10:10:09;;;;;;;5.05;1.77;;;;;;;;;;5112696;27;20475;-81
2023/03/02 10:16:19;;;;;;;11.77;1.58;;;;;;;;;;5102172;27;20427;-83
2023/03/02 10:18:48;;;;;;;6.70;2.10;;;;;;;;;;5092457;27;20650;-82
2023/03/02 10:21:20;;;;;;;7.07;1.85;;;;;;;;;;5111613;27;20031;-82
2023/03/02 10:27:15;;;;;;;3.78;1.60;;;;;;;;;;5105221;27;20085;-81
2023/03/02 10:30:26;;;;;;;;;;;;;;;;;;5093617;27;20024;-81
2023/03/02 10:33:12;;;;;;;4.07;1.67;;;;;;;;;;5102372;27;19912;-80
2023/03/02 10:39:01;;;;;;;7.75;1.90;;;;;;;;;;4973084;28;20080;-89
2023/03/02 10:41:38;;;;;;;9.30;2.67;;;;;;;;;;4983947;28;20537;-82
2023/03/02 10:44:15;;;;;;;4.72;1.50;;;;;;;;;;4994098;28;20536;-82
2023/03/02 10:47:06;;;;;;;5.43;1.70;;;;;;;;;;5023809;27;20032;-81
2023/03/02 10:49:55;;;;;;;6.25;1.88;;;;;;;;;;5110724;27;20008;-83
2023/03/02 10:52:25;;;;;;;5.70;2.17;;;;;;;;;;5114176;27;20027;-84
2023/03/02 10:55:01;;;;;;;7.07;2.20;;;;;;;;;;5112014;27;20027;-80
2023/03/02 10:57:28;;;;;;;6.95;2.28;;;;;;;;;;5108181;27;20043;-79
2023/03/02 10:59:58;;;;;;;8.43;2.03;;;;;;;;;;5107101;27;20063;-74
2023/03/02 11:02:26;;;;;;;7.93;1.90;;;;;;;;;;5103587;27;20022;-85
2023/03/02 11:04:55;;;;;;;5.55;1.77;;;;;;;;;;5102668;27;20027;-79
2023/03/02 11:14:09;;;;;;;7.63;1.60;;;;;;;;;;5063722;28;20052;-81
2023/03/02 11:16:35;;;;;;;16.33;1.83;;;;;;;;;;5102505;27;20043;-78
2023/03/02 11:19:15;;;;;;;10.48;2.17;;;;;;;;;;5111490;27;20023;-86
2023/03/02 11:21:57;;;;;;;8.55;1.95;;;;;;;;;;5090827;27;20040;-76
2023/03/02 11:24:51;;;;;;;5.80;1.42;;;;;;;;;;5112367;27;20114;-88
2023/03/02 11:27:29;;;;;;;8.18;2.22;;;;;;;;;;5110887;27;20605;-79
2023/03/02 11:33:03;;;;;;;7.15;1.63;;;;;;;;;;5103094;27;20035;-80
2023/03/02 11:35:32;;;;;;;6.68;1.80;;;;;;;;;;5108656;27;20124;-81
2023/03/02 11:38:21;;;;;;;5.75;1.50;;;;;;;;;;5113250;27;20065;-81
2023/03/02 11:41:28;;;;;;;6.57;1.75;;;;;;;;;;5111910;27;20475;-82
2023/03/02 11:44:15;;;;;;;5.82;1.52;;;;;;;;;;5034604;28;20057;-82
2023/03/02 11:46:55;;;;;;;;;;;;;;;;;;;;;
2023/03/02 11:49:42;;;;;;;5.72;1.48;;;;;;;;;;5089069;27;20036;-82
2023/03/02 11:52:31;;;;;;;4.97;1.63;;;;;;;;;;5105814;27;20114;-82
2023/03/02 11:55:00;;;;;;;4.32;2.08;;;;;;;;;;5104882;27;20028;-80
2023/03/02 11:57:33;;;;;;;3.45;1.42;;;;;;;;;;5109661;27;20070;-80
2023/03/02 12:00:00;;;;;;;4.93;1.83;;;;;;;;;;5108981;27;20019;-80
2023/03/02 12:02:26;;;;;;;5.35;1.48;;;;;;;;;;5107618;27;20115;-80
2023/03/02 12:05:22;;;;;;;3.83;1.13;;;;;;;;;;5096401;28;20160;-82
2023/03/02 12:08:01;;;;;;;4.72;1.40;;;;;;;;;;5110333;27;20479;-88
2023/03/02 12:10:33;;;;;;;5.65;2.10;;;;;;;;;;5102482;27;20123;-84
2023/03/02 12:13:03;;;;;;;5.20;1.55;;;;;;;;;;5107891;27;20107;-85
2023/03/02 12:15:55;;;;;;;5.57;1.60;;;;;;;;;;5106637;27;20446;-86
2023/03/02 12:18:21;;;;;;;6.35;1.48;;;;;;;;;;5102736;28;20433;-82
2023/03/02 12:21:03;;;;;;;7.97;2.00;;;;;;;;;;5120423;27;20033;-90
2023/03/02 12:23:32;;;;;;;6.60;1.67;;;;;;;;;;5111376;27;20502;-87
2023/03/02 12:26:07;;;;;;;4.80;1.40;;;;;;;;;;5107786;27;20027;-89
2023/03/02 12:31:40;;;;;;;20.35;2.15;;;;;;;;;;5112927;27;20034;-89
2023/03/02 12:37:31;;;;;;;5.50;1.77;;;;;;;;;;5097227;28;20070;-88
2023/03/02 12:40:24;;;;;;;6.15;1.95;;;;;;;;;;5107390;27;20050;-85
2023/03/02 12:43:09;;;;;;;8.30;1.73;;;;;;;;;;5103732;27;20051;-89
2023/03/02 12:45:54;;;;;;;3.97;1.40;;;;;;;;;;5107920;27;20028;-87
2023/03/02 12:48:26;;;;;;;6.60;2.25;;;;;;;;;;5094708;27;20103;-86
2023/03/02 12:50:55;;;;;;;8.25;1.80;;;;;;;;;;5108135;27;20023;-88
2023/03/02 12:53:24;;;;;;;8.13;1.60;;;;;;;;;;5099490;27;20020;-88
2023/03/02 12:55:55;;;;;;;7.57;1.85;;;;;;;;;;5092316;28;20039;-85
2023/03/02 12:58:26;;;;;;;5.18;1.52;;;;;;;;;;5108806;27;20047;-86
2023/03/02 13:01:25;;;;;;;5.40;1.63;;;;;;;;;;5119398;27;20058;-88
2023/03/02 13:03:51;;;;;;;7.70;1.50;;;;;;;;;;5107594;28;20118;-92
2023/03/02 13:06:18;;;;;;;5.63;1.83;;;;;;;;;;5109128;27;20028;-86
2023/03/02 13:08:46;;;;;;;4.63;1.48;;;;;;;;;;5106953;27;20044;-85
2023/03/02 13:11:23;;;;;;;3.70;1.50;;;;;;;;;;5108836;27;20063;-86
2023/03/02 13:13:49;;;;;;;4.43;1.30;;;;;;;;;;5105648;27;20036;-87
2023/03/02 13:16:23;;;;;;;8.07;1.83;;;;;;;;;;5112135;27;20042;-86
2023/03/02 13:18:55;;;;;;;3.58;2.00;;;;;;;;;;5105043;28;20543;-87
2023/03/02 13:21:40;;;;;;;4.43;2.00;;;;;;;;;;5114580;27;20051;-86
2023/03/02 13:24:54;;;;;;;;;;;;;;;;;;;;;
2023/03/02 13:27:23;;;;;;;4.72;1.92;;;;;;;;;;5069906;28;20097;-85
2023/03/02 13:29:51;;;;;;;7.03;2.05;;;;;;;;;;5112684;28;20050;-87
2023/03/02 13:35:37;;;;;;;4.07;1.50;;;;;;;;;;5021587;28;20038;-84
2023/03/02 13:38:19;;;;;;;4.80;1.48;;;;;;;;;;5108030;28;20033;-87
2023/03/02 13:40:47;;;;;;;4.38;1.33;;;;;;;;;;5110043;27;20510;-76
2023/03/02 13:43:22;;;;;;;5.68;1.58;;;;;;;;;;5105223;27;20042;-85
2023/03/02 13:45:56;;;;;;;4.28;1.33;;;;;;;;;;5110631;27;20024;-86
2023/03/02 13:48:23;;;;;;;3.53;1.58;;;;;;;;;;5110443;27;20374;-85
2023/03/02 13:51:18;;;;;;;2.42;1.20;;;;;;;;;;5106344;28;20054;-88
2023/03/02 13:53:50;;;;;;;5.10;1.98;;;;;;;;;;5091115;28;20048;-83
2023/03/02 13:56:25;;;;;;;4.22;2.13;;;;;;;;;;5107108;28;20031;-85
2023/03/02 13:58:51;;;;;;;3.35;1.80;;;;;;;;;;5114971;27;20111;-79
2023/03/02 14:01:17;;;;;;;4.25;1.70;;;;;;;;;;5111384;27;20194;-87
2023/03/02 14:03:44;;;;;;;6.07;1.83;;;;;;;;;;5108750;27;20039;-82
2023/03/02 14:06:10;;;;;;;3.33;1.45;;;;;;;;;;5111389;27;20034;-81
2023/03/02 14:08:36;;;;;;;2.85;1.70;;;;;;;;;;5111995;27;20046;-86
2023/03/02 14:11:03;;;;;;;4.00;1.20;;;;;;;;;;5108634;27;20031;-83
2023/03/02 14:13:57;;;;;;;4.63;1.58;;;;;;;;;;5101025;27;20374;-79
2023/03/02 14:16:23;;;;;;;3.65;1.52;;;;;;;;;;5104052;27;20702;-86
2023/03/02 14:18:51;;;;;;;4.38;1.30;;;;;;;;;;5102925;27;20034;-86
2023/03/02 14:21:21;;;;;;;6.78;1.70;;;;;;;;;;5107648;27;20046;-85
2023/03/02 14:23:48;;;;;;;10.90;1.75;;;;;;;;;;5105848;27;20035;-81
2023/03/02 14:26:17;;;;;;;6.47;1.80;;;;;;;;;;5102155;27;20691;-86
2023/03/02 14:28:44;;;;;;;1.90;1.25;;;;;;;;;;5102035;27;20032;-83
2023/03/02 14:31:18;;;;;;;4.05;1.42;;;;;;;;;;5111614;27;20511;-85
2023/03/02 14:33:46;;;;;;;6.15;1.35;;;;;;;;;;5107745;27;20039;-85
2023/03/02 14:36:15;;;;;;;4.50;1.50;;;;;;;;;;5108299;27;20047;-84
2023/03/02 14:38:42;;;;;;;3.85;1.30;;;;;;;;;;5110210;27;20478;-86
2023/03/02 14:41:13;;;;;;;4.32;1.50;;;;;;;;;;5112047;27;20495;-84
2023/03/02 14:43:39;;;;;;;4.90;1.20;;;;;;;;;;5111545;27;20044;-84
2023/03/02 14:46:05;;;;;;;4.80;1.85;;;;;;;;;;5108383;27;20034;-84
2023/03/02 14:48:32;;;;;;;2.92;1.42;;;;;;;;;;5106292;27;20019;-84
2023/03/02 14:51:01;;;;;;;6.28;1.40;;;;;;;;;;5109908;27;20623;-85
2023/03/02 14:53:29;;;;;;;3.13;1.10;;;;;;;;;;5113657;27;20235;-84
2023/03/02 14:55:55;;;;;;;3.67;1.10;;;;;;;;;;5110761;27;20024;-85
2023/03/02 14:58:27;;;;;;;3.63;1.20;;;;;;;;;;5113607;27;20062;-86
2023/03/02 15:00:53;;;;;;;;;;;;;;;;;;5112372;27;20126;-83
2023/03/02 15:03:24;;;;;;;1.60;1.00;;;;;;;;;;5111856;27;19915;-85
2023/03/02 15:05:52;;;;;;;3.95;1.33;;;;;;;;;;5110963;27;20051;-84
2023/03/02 15:08:18;;;;;;;1.90;1.17;;;;;;;;;;5108214;27;20023;-85
2023/03/02 15:10:45;;;;;;;3.40;1.30;;;;;;;;;;5117142;27;20043;-84
2023/03/02 15:13:12;;;;;;;3.90;1.30;;;;;;;;;;5109390;27;20022;-83
2023/03/02 15:15:39;;;;;;;4.55;1.52;;;;;;;;;;5108648;27;20012;-83
2023/03/02 15:18:06;;;;;;;4.47;1.50;;;;;;;;;;5108809;27;20513;-84
2023/03/02 15:20:35;;;;;;;3.05;1.23;;;;;;;;;;5111798;27;20059;-84
2023/03/02 15:23:07;;;;;;;2.88;1.50;;;;;;;;;;5112150;27;20057;-85
2023/03/02 15:25:35;;;;;;;5.45;1.60;;;;;;;;;;5112283;27;20023;-84
2023/03/02 15:28:07;;;;;;;5.72;1.73;;;;;;;;;;5111485;27;20118;-84
2023/03/02 15:30:33;;;;;;;4.25;1.40;;;;;;;;;;5108259;27;20027;-85
2023/03/02 15:33:00;;;;;;;4.38;1.80;;;;;;;;;;5108823;27;20417;-85
2023/03/02 15:35:28;;;;;;;5.07;2.15;;;;;;;;;;5104773;27;20027;-85
2023/03/02 15:37:57;;;;;;;4.90;2.00;;;;;;;;;;5112789;27;20034;-84
2023/03/02 15:40:23;;;;;;;4.38;2.00;;;;;;;;;;5113473;27;20042;-80
2023/03/02 15:42:50;;;;;;;6.90;2.28;;;;;;;;;;5108391;27;20069;-82
2023/03/02 15:45:16;;;;;;;5.68;2.72;;;;;;;;;;5113271;27;20031;-83